createdAt,value
2018-09-29T00:03:28.672Z,71.47
2018-09-29T00:08:31.796Z,71.42
2018-09-29T00:13:34.912Z,71.71
2018-09-29T00:18:38.012Z,71.80
2018-09-29T00:23:41.076Z,71.44
2018-09-29T00:28:44.141Z,71.46
2018-09-29T00:33:47.259Z,71.91
2018-09-29T00:38:50.331Z,71.27
2018-09-29T00:43:53.441Z,71.25
2018-09-29T00:48:56.507Z,71.18
2018-09-29T00:53:59.592Z,71.25
2018-09-29T00:59:02.706Z,71.15
2018-09-29T01:04:06.260Z,71.19
2018-09-29T01:09:09.793Z,71.31
2018-09-29T01:14:13.275Z,71.69
2018-09-29T01:19:16.700Z,72.74
2018-09-29T01:24:19.817Z,72.65
2018-09-29T01:29:22.895Z,72.20
2018-09-29T01:34:26.203Z,72.28
2018-09-29T01:39:29.296Z,71.77
2018-09-29T01:44:32.459Z,71.79
2018-09-29T01:49:35.543Z,71.80
2018-09-29T01:54:38.621Z,71.89
2018-09-29T01:59:41.745Z,72.08
2018-09-29T02:04:44.792Z,72.49
2018-09-29T02:09:48.047Z,73.05
2018-09-29T02:14:51.117Z,73.27
2018-09-29T02:19:54.297Z,73.23
2018-09-29T02:24:57.369Z,73.17
2018-09-29T02:30:00.432Z,73.40
2018-09-29T02:35:03.532Z,73.03
2018-09-29T02:40:06.675Z,73.00
2018-09-29T02:45:09.887Z,73.07
2018-09-29T02:50:12.974Z,72.31
2018-09-29T02:55:16.053Z,72.70
2018-09-29T03:00:19.131Z,72.67
2018-09-29T03:05:22.224Z,73.36
2018-09-29T03:10:25.596Z,73.19
2018-09-29T03:15:28.978Z,73.26
2018-09-29T03:20:32.152Z,73.31
2018-09-29T03:25:35.239Z,73.37
2018-09-29T03:30:38.306Z,72.31
2018-09-29T03:35:41.395Z,72.16
2018-09-29T03:40:44.471Z,72.42
2018-09-29T03:45:47.543Z,72.84
2018-09-29T03:50:50.602Z,72.82
2018-09-29T03:55:53.687Z,73.33
2018-09-29T04:00:56.843Z,72.74
2018-09-29T04:05:59.943Z,73.24
2018-09-29T04:11:03.119Z,73.82
2018-09-29T04:16:06.284Z,73.48
2018-09-29T04:21:09.346Z,74.22
2018-09-29T04:26:12.403Z,73.59
2018-09-29T04:31:15.489Z,73.90
2018-09-29T04:36:18.594Z,74.16
2018-09-29T04:41:21.680Z,74.08
2018-09-29T04:46:24.931Z,74.16
2018-09-29T04:51:28.055Z,74.45
2018-09-29T04:56:31.872Z,73.69
2018-09-29T05:01:34.979Z,73.99
2018-09-29T05:06:38.232Z,73.46
2018-09-29T05:11:41.227Z,73.51
2018-09-29T05:16:44.328Z,73.27
2018-09-29T05:21:47.399Z,73.50
2018-09-29T05:26:50.522Z,73.66
2018-09-29T05:31:53.623Z,73.71
2018-09-29T05:36:56.704Z,73.96
2018-09-29T05:41:59.803Z,73.94
2018-09-29T05:47:02.959Z,73.16
2018-09-29T05:52:06.159Z,73.66
2018-09-29T05:57:09.224Z,74.03
2018-09-29T06:02:12.270Z,74.11
2018-09-29T06:07:15.402Z,73.79
2018-09-29T06:12:18.496Z,73.93
2018-09-29T06:17:21.587Z,74.35
2018-09-29T06:22:24.691Z,74.07
2018-09-29T06:27:27.791Z,74.47
2018-09-29T06:32:30.883Z,74.60
2018-09-29T06:37:33.999Z,73.82
2018-09-29T06:42:37.166Z,74.03
2018-09-29T06:47:40.270Z,74.36
2018-09-29T06:52:43.323Z,73.97
2018-09-29T06:57:46.411Z,74.29
2018-09-29T07:02:49.622Z,74.34
2018-09-29T07:07:54.891Z,73.55
2018-09-29T07:12:58.088Z,73.93
2018-09-29T07:18:05.256Z,74.45
2018-09-29T07:23:08.704Z,74.11
2018-09-29T07:28:11.945Z,73.78
2018-09-29T07:33:15.071Z,73.42
2018-09-29T07:38:18.616Z,73.05
2018-09-29T07:43:21.856Z,72.10
2018-09-29T07:48:25.078Z,71.94
2018-09-29T07:53:28.115Z,70.67
2018-09-29T07:58:31.218Z,69.78
2018-09-29T08:03:34.308Z,68.75
2018-09-29T08:08:37.418Z,67.98
2018-09-29T08:13:40.540Z,67.25
2018-09-29T08:18:43.739Z,66.60
2018-09-29T08:23:46.882Z,66.22
2018-09-29T08:28:49.988Z,65.58
2018-09-29T08:33:53.104Z,64.48
2018-09-29T08:38:56.159Z,64.96
2018-09-29T08:43:59.224Z,64.20
2018-09-29T08:49:02.341Z,63.67
2018-09-29T08:54:05.447Z,63.37
2018-09-29T08:59:08.528Z,62.07
2018-09-29T09:04:11.640Z,60.64
2018-09-29T09:09:14.759Z,59.52
2018-09-29T09:14:17.832Z,59.55
2018-09-29T09:19:21.013Z,59.20
2018-09-29T09:24:24.144Z,58.78
2018-09-29T09:29:27.252Z,57.28
2018-09-29T09:34:30.343Z,56.75
2018-09-29T09:39:33.423Z,55.56
2018-09-29T09:44:36.479Z,55.37
2018-09-29T09:49:39.567Z,55.28
2018-09-29T09:54:43.283Z,54.64
2018-09-29T09:59:46.440Z,53.91
2018-09-29T10:04:49.527Z,53.80
2018-09-29T10:09:52.608Z,53.28
2018-09-29T10:14:55.784Z,53.58
2018-09-29T10:19:58.887Z,52.79
2018-09-29T10:25:01.961Z,52.86
2018-09-29T10:30:05.826Z,52.20
2018-09-29T10:35:08.943Z,52.14
2018-09-29T10:40:12.089Z,51.92
2018-09-29T10:45:15.972Z,51.47
2018-09-29T10:50:19.122Z,51.51
2018-09-29T10:55:22.243Z,51.65
2018-09-29T11:00:25.294Z,50.73
2018-09-29T11:05:28.393Z,50.66
2018-09-29T11:10:31.672Z,50.26
2018-09-29T11:15:34.871Z,49.41
2018-09-29T11:20:38.060Z,50.14
2018-09-29T11:25:41.257Z,49.88
2018-09-29T11:30:44.342Z,48.42
2018-09-29T11:35:47.507Z,48.31
2018-09-29T11:40:50.633Z,48.44
2018-09-29T11:45:53.735Z,46.38
2018-09-29T11:50:56.843Z,44.46
2018-09-29T11:55:59.929Z,44.71
2018-09-29T12:01:03.086Z,45.12
2018-09-29T12:06:06.298Z,45.80
2018-09-29T12:11:09.636Z,46.11
2018-09-29T12:16:12.833Z,44.61
2018-09-29T12:21:15.963Z,45.17
2018-09-29T12:26:21.141Z,44.80
2018-09-29T12:31:24.456Z,43.67
2018-09-29T12:36:27.528Z,43.43
2018-09-29T12:41:30.731Z,42.59
2018-09-29T12:46:33.835Z,43.02
2018-09-29T12:51:36.989Z,43.21
2018-09-29T12:56:41.007Z,42.50
2018-09-29T13:01:44.253Z,42.72
2018-09-29T13:06:47.455Z,42.62
2018-09-29T13:11:50.546Z,42.29
2018-09-29T13:16:53.766Z,43.05
2018-09-29T13:21:56.798Z,43.64
2018-09-29T13:26:59.965Z,43.36
2018-09-29T13:32:03.349Z,42.56
2018-09-29T13:37:06.508Z,42.15
2018-09-29T13:42:09.634Z,41.08
2018-09-29T13:47:12.767Z,41.13
2018-09-29T13:52:16.663Z,41.80
2018-09-29T13:57:20.020Z,41.03
2018-09-29T14:02:23.148Z,41.34
2018-09-29T14:07:26.224Z,41.67
2018-09-29T14:12:29.345Z,41.55
2018-09-29T14:17:32.438Z,41.72
2018-09-29T14:22:35.522Z,42.06
2018-09-29T14:27:38.600Z,41.65
2018-09-29T14:32:41.741Z,41.43
2018-09-29T14:37:44.926Z,41.45
2018-09-29T14:42:48.059Z,41.11
2018-09-29T14:47:51.144Z,41.12
2018-09-29T14:52:54.229Z,40.96
2018-09-29T14:57:57.358Z,40.38
2018-09-29T15:03:00.452Z,39.48
2018-09-29T15:08:03.585Z,40.43
2018-09-29T15:13:06.711Z,40.93
2018-09-29T15:18:09.835Z,40.42
2018-09-29T15:23:12.979Z,40.04
2018-09-29T15:28:16.082Z,40.76
2018-09-29T15:33:19.180Z,41.13
2018-09-29T15:38:22.275Z,40.82
2018-09-29T15:43:25.349Z,41.59
2018-09-29T15:48:28.427Z,40.93
2018-09-29T15:53:31.511Z,40.47
2018-09-29T15:58:34.583Z,41.11
2018-09-29T16:03:37.743Z,41.26
2018-09-29T16:08:40.831Z,41.86
2018-09-29T16:13:43.898Z,42.04
2018-09-29T16:18:46.989Z,42.70
2018-09-29T16:23:50.059Z,42.79
2018-09-29T16:28:53.743Z,42.89
2018-09-29T16:33:56.862Z,43.69
2018-09-29T16:39:00.027Z,43.46
2018-09-29T16:44:03.149Z,44.87
2018-09-29T16:49:06.304Z,44.70
2018-09-29T16:54:09.520Z,46.41
2018-09-29T16:59:12.635Z,48.40
2018-09-29T17:04:15.770Z,49.40
2018-09-29T17:09:18.803Z,50.42
2018-09-29T17:14:21.899Z,51.52
2018-09-29T17:19:24.952Z,51.69
2018-09-29T17:24:28.069Z,52.65
2018-09-29T17:29:31.180Z,53.29
2018-09-29T17:34:34.250Z,53.69
2018-09-29T17:39:37.403Z,54.45
2018-09-29T17:44:40.488Z,54.55
2018-09-29T17:49:43.595Z,55.22
2018-09-29T17:54:46.754Z,56.50
2018-09-29T17:59:50.005Z,57.87
2018-09-29T18:04:53.495Z,58.84
2018-09-29T18:09:56.567Z,58.45
2018-09-29T18:15:00.203Z,59.06
2018-09-29T18:20:04.099Z,58.80
2018-09-29T18:25:07.268Z,59.31
2018-09-29T18:30:10.365Z,60.62
2018-09-29T18:35:13.951Z,61.58
2018-09-29T18:40:18.121Z,61.74
2018-09-29T18:45:21.895Z,62.59
2018-09-29T18:50:25.091Z,62.80
2018-09-29T18:55:29.172Z,63.10
2018-09-29T19:00:34.072Z,64.55
2018-09-29T19:05:37.647Z,65.59
2018-09-29T19:10:41.734Z,66.21
2018-09-29T19:15:45.223Z,65.58
2018-09-29T19:20:49.144Z,65.55
2018-09-29T19:25:53.159Z,65.63
2018-09-29T19:30:57.176Z,65.00
2018-09-29T19:36:00.700Z,64.71
2018-09-29T19:41:04.455Z,65.27
2018-09-29T19:46:08.483Z,65.84
2018-09-29T19:51:12.405Z,65.89
2018-09-29T19:56:16.848Z,65.73
2018-09-29T20:01:20.013Z,65.51
2018-09-29T20:06:23.083Z,65.63
2018-09-29T20:11:26.179Z,65.35
2018-09-29T20:16:29.373Z,65.70
2018-09-29T20:21:32.590Z,67.22
2018-09-29T20:26:35.671Z,67.20
2018-09-29T20:31:39.022Z,67.16
2018-09-29T20:36:42.112Z,67.12
2018-09-29T20:41:45.195Z,66.83
2018-09-29T20:46:48.280Z,66.68
2018-09-29T20:51:51.379Z,66.99
2018-09-29T20:56:54.491Z,67.54
2018-09-29T21:01:57.563Z,68.15
2018-09-29T21:07:00.627Z,68.85
2018-09-29T21:12:03.723Z,68.85
2018-09-29T21:17:06.816Z,68.76
2018-09-29T21:22:09.896Z,68.96
2018-09-29T21:27:12.989Z,69.37
2018-09-29T21:32:16.093Z,69.82
2018-09-29T21:37:19.416Z,69.50
2018-09-29T21:42:22.585Z,70.28
2018-09-29T21:47:25.687Z,70.18
2018-09-29T21:52:28.862Z,69.59
2018-09-29T21:57:31.887Z,69.79
2018-09-29T22:02:34.989Z,70.15
2018-09-29T22:07:38.082Z,69.99
2018-09-29T22:12:41.209Z,70.15
2018-09-29T22:17:44.280Z,69.63
2018-09-29T22:22:47.363Z,69.92
2018-09-29T22:27:50.448Z,69.37
2018-09-29T22:32:53.566Z,70.14
2018-09-29T22:37:56.632Z,70.37
2018-09-29T22:42:59.733Z,70.89
2018-09-29T22:48:02.924Z,69.91
2018-09-29T22:53:06.188Z,70.67
2018-09-29T22:58:09.411Z,71.04
2018-09-29T23:03:12.583Z,70.84
2018-09-29T23:08:15.744Z,70.71
2018-09-29T23:13:18.877Z,71.03
2018-09-29T23:18:22.068Z,71.75
2018-09-29T23:23:25.140Z,72.20
2018-09-29T23:28:28.617Z,72.31
2018-09-29T23:33:31.737Z,72.95
2018-09-29T23:38:34.783Z,72.65
2018-09-29T23:43:37.844Z,71.34
2018-09-29T23:48:40.957Z,72.09
2018-09-29T23:53:44.036Z,72.27
2018-09-29T23:58:47.102Z,72.61
